Tributaries of Vltava river

river Berounka - water gauge Beroun

Date and time (UTC) H (cm) Q (m3/s)
19. 4. 2019 23:00 82 13
19. 4. 2019 22:00 83 14
19. 4. 2019 21:00 78 11
19. 4. 2019 20:00 79 12
19. 4. 2019 19:00 87 16
19. 4. 2019 18:00 87 16
19. 4. 2019 17:00 85 15
19. 4. 2019 16:00 76 10
19. 4. 2019 15:00 80 12
19. 4. 2019 14:00 83 14
19. 4. 2019 13:00 83 14
19. 4. 2019 12:00 83 14
19. 4. 2019 11:00 83 14

H - vodni stav, Q - discharge

river Sázava - water gauge Nespeky

Date and time (UTC) H (cm) Q (m3/s)
19. 4. 2019 23:00 57 8
19. 4. 2019 22:00 58 8
19. 4. 2019 21:00 58 8
19. 4. 2019 20:00 58 8
19. 4. 2019 19:00 59 8
19. 4. 2019 18:00 59 8
19. 4. 2019 17:00 59 8
19. 4. 2019 16:00 59 8
19. 4. 2019 15:00 59 8
19. 4. 2019 14:00 60 8
19. 4. 2019 13:00 59 8
19. 4. 2019 12:00 60 8
19. 4. 2019 11:00 62 9

H - vodni stav, Q - discharge

river Otava - water gauge Písek

Date and time (UTC) H (cm) Q (m3/s)
19. 4. 2019 23:00 99 25
19. 4. 2019 22:00 99 25
19. 4. 2019 21:00 100 26
19. 4. 2019 20:00 101 26
19. 4. 2019 19:00 102 27
19. 4. 2019 18:00 103 27
19. 4. 2019 17:00 103 27
19. 4. 2019 16:00 104 28
19. 4. 2019 15:00 103 27
19. 4. 2019 14:00 103 27
19. 4. 2019 13:00 103 27
19. 4. 2019 12:00 101 26
19. 4. 2019 11:00 98 25

H - vodni stav, Q - discharge

river Lužnice - water gauge Bechyně

Date and time (UTC) H (cm) Q (m3/s)
19. 4. 2019 23:00 100 7
19. 4. 2019 22:00 101 7
19. 4. 2019 21:00 100 7
19. 4. 2019 20:00 100 7
19. 4. 2019 19:00 100 7
19. 4. 2019 18:00 100 7
19. 4. 2019 17:00 100 7
19. 4. 2019 16:00 101 7
19. 4. 2019 15:00 101 7
19. 4. 2019 14:00 102 7
19. 4. 2019 13:00 103 8
19. 4. 2019 12:00 103 8
19. 4. 2019 11:00 102 7

H - vodni stav, Q - discharge
Source data
Labe Basin Vltava Basin ČHMÚ